RJTY/OKO METAR and TAF weather

Enter ICAO airport designator
Station Type Date Time Source
RJTY METAR 2019/06/17 15:11 UTC NOAA

RJTY 171511Z AUTO 03003KT 4SM HZ CLR 18/13 A2997 RMK AO2 SLP147 FZRANO $


Station Type Date Time Source
RJTY Decoded METAR 2019/06/17 15:11 UTC NOAA

Yokota Ab, Japan (RJTY) 35-45N 139-21E 142M
Jun 17, 2019 - 11:11 AM EDT / 2019.06.17 1511 UTC
Wind: from the NNE (030 degrees) at 3 MPH (3 KT):0
Visibility: 4 mile(s):0
Sky conditions: clear
Weather: haze
Temperature: 64 F (18 C)
Dew Point: 55 F (13 C)
Relative Humidity: 72%
Pressure (altimeter): 29.97 in. Hg (1014 hPa)
ob: RJTY 171511Z AUTO 03003KT 4SM HZ CLR 18/13 A2997 RMK AO2 SLP147 FZRANO
cycle: 15

Station Type Date Time Source
RJTY TAF 2019/06/17 13:03 UTC NOAA

TAF TAF RJTY 171300Z 1713/1819 VRB06KT 9999 BKN030 QNH2988INS
BECMG 1800/1802 09010G15KT 9999 SCT050 QNH2985INS TX31/1803Z TN15/1721Z LAST NO
AMDS AFT 1713 NEXT 1721

Example: see airport list